Catàleg de serveis del Meteocat

Dades de l'estació automàtica Gandesa

?
?
Resum diari 21:00 TU
Dades diàries de l'estació meteorològica
Temperatura mitjana 4.1 °C
Temperatura màxima 7.4 °C 14:14 TU
Temperatura mínima 1.3 °C 8:11 TU
Humitat relativa mitjana 88%
Precipitació acumulada 0.0 mm
Ratxa màxima del vent (2 m) 26.6 km/h - 284º 11:09 TU
Irradiació solar global 4.3 MJ/m2

El tram horari està expressat en Temps Universal (TU). Cal sumar una hora en horari d'hivern i dues en horari d'estiu per passar a l'hora oficial.

Gandesa

Metadades estació meteorol´gica
Municipi Gandesa
Comarca Terra Alta
Altitud 349 m
Data alta 30.11.2011
Estat actual Operativa
Dades de període
Període
TU
TM
°C
TX
°C
TN
°C
HRM
%
PPT
mm
VVM (2 m)
km/h
DVM (2 m)
graus
VVX (2 m)
km/h
RS
W/m2
00:00 - 00:30 4.1 4.3 4.1 97 0.0 7.6 268 16.2 0
00:30 - 01:00 4.0 4.1 3.8 97 0.0 7.6 272 15.1 0
01:00 - 01:30 3.8 3.8 3.6 97 0.0 7.2 264 14.8 0
01:30 - 02:00 3.5 3.6 3.5 96 0.0 7.2 262 14.8 0
02:00 - 02:30 3.6 3.8 3.5 94 0.0 5.8 276 11.9 0
02:30 - 03:00 3.6 3.8 3.3 91 0.0 4.7 288 9.4 0
03:00 - 03:30 2.9 3.3 2.7 92 0.0 2.9 258 4.7 0
03:30 - 04:00 2.4 2.6 2.3 92 0.0 2.2 259 9.0 0
04:00 - 04:30 2.1 2.5 1.9 93 0.0 1.1 220 7.2 0
04:30 - 05:00 2.0 2.2 2.0 94 0.0 2.5 265 6.1 0
05:00 - 05:30 2.0 2.1 2.0 95 0.0 4.3 316 9.4 0
05:30 - 06:00 1.8 2.0 1.7 95 0.0 6.5 318 13.7 0
06:00 - 06:30 1.7 1.8 1.6 96 0.0 6.1 304 13.3 0
06:30 - 07:00 1.6 1.6 1.5 96 0.0 5.4 301 13.7 0
07:00 - 07:30 1.5 1.5 1.5 96 0.0 5.8 309 12.2 2
07:30 - 08:00 1.5 1.6 1.4 96 0.0 5.0 287 12.6 15
08:00 - 08:30 1.4 1.6 1.3 97 0.0 3.6 287 9.7 60
08:30 - 09:00 1.7 1.9 1.6 97 0.0 4.0 299 11.9 75
09:00 - 09:30 2.3 2.8 1.8 97 0.0 6.8 299 12.6 201
09:30 - 10:00 2.7 2.9 2.5 97 0.0 7.6 294 14.0 265
10:00 - 10:30 3.1 3.4 2.8 96 0.0 7.9 303 14.4 140
10:30 - 11:00 3.8 4.2 3.4 93 0.0 8.6 306 15.1 128
11:00 - 11:30 4.7 5.2 4.2 86 0.0 9.4 297 26.6 110
11:30 - 12:00 5.3 5.5 5.0 83 0.0 7.9 296 15.5 166
12:00 - 12:30 5.3 5.5 5.0 82 0.0 10.4 311 18.0 170
12:30 - 13:00 5.2 5.5 5.0 82 0.0 8.6 299 18.4 130
13:00 - 13:30 5.8 6.3 5.3 81 0.0 8.3 283 17.3 195
13:30 - 14:00 7.0 7.2 6.4 77 0.0 11.5 282 22.3 254
14:00 - 14:30 7.3 7.4 7.0 76 0.0 12.2 287 24.5 202
14:30 - 15:00 7.3 7.4 7.1 76 0.0 9.0 288 23.8 134
15:00 - 15:30 7.2 7.3 7.1 76 0.0 8.6 289 23.4 79
15:30 - 16:00 7.0 7.0 6.9 77 0.0 6.8 296 14.4 46
16:00 - 16:30 6.6 6.9 6.3 79 0.0 6.8 305 12.2 38
16:30 - 17:00 6.0 6.3 5.6 81 0.0 5.8 302 11.2 6
17:00 - 17:30 5.2 5.5 4.8 85 0.0 5.0 294 10.1 0
17:30 - 18:00 4.6 4.8 4.5 87 0.0 3.6 271 8.6 0
18:00 - 18:30 4.4 4.5 4.1 88 0.0 2.2 323 5.4 0
18:30 - 19:00 3.9 4.1 3.6 89 0.0 1.1 86 4.7 0
19:00 - 19:30 3.5 3.6 3.2 91 0.0 3.2 80 6.5 0
19:30 - 20:00 3.2 3.2 3.1 92 0.0 2.2 50 5.8 0
20:00 - 20:30 5.6 6.6 3.3 76 0.0 5.8 264 15.1 0
20:30 - 21:00 6.3 6.5 6.0 69 0.0 7.2 253 15.8 0
21:00 - 21:30 5.8 5.9 5.6 70 0.0 6.5 251 12.6 0

Les dades en taronja només han passat un control de qualitat automàtic. Resta pendent la seva validació definitiva.